Time;durP1;ratioP1;P1;durP2;ratioP2;P2;SDS_P1;SDS_P2;PMS_P1;PMS_P2;Temp;Humidity;BMP_temperature;BMP_pressure;BME280_temperature;BME280_humidity;BME280_pressure;Samples;Min_cycle;Max_cycle;Signal;HPM_P1;HPM_P2
2021/11/03 00:00:18;;;;;;;15.90;6.90;;;;;;;;;;5033042;28;20014;-80
2021/11/03 00:02:44;;;;;;;14.03;7.47;;;;;;;;;;5036011;28;20481;-80
2021/11/03 00:05:10;;;;;;;14.17;7.53;;;;;;;;;;5039840;28;20099;-80
2021/11/03 00:07:35;;;;;;;15.60;7.57;;;;;;;;;;5033279;28;20029;-80
2021/11/03 00:10:01;;;;;;;16.40;8.10;;;;;;;;;;5040400;28;20100;-80
2021/11/03 00:12:27;;;;;;;18.80;8.37;;;;;;;;;;5047135;28;20075;-80
2021/11/03 00:14:52;;;;;;;15.10;7.77;;;;;;;;;;5037496;28;20021;-80
2021/11/03 00:17:17;;;;;;;16.70;7.37;;;;;;;;;;5030906;28;20492;-80
2021/11/03 00:19:43;;;;;;;16.13;7.23;;;;;;;;;;5038065;28;20021;-80
2021/11/03 00:22:08;;;;;;;16.20;8.00;;;;;;;;;;5036191;28;20487;-80
2021/11/03 00:24:34;;;;;;;16.30;8.17;;;;;;;;;;5039721;28;20021;-80
2021/11/03 00:27:00;;;;;;;13.43;7.50;;;;;;;;;;5035080;28;20025;-80
2021/11/03 00:29:26;;;;;;;14.97;7.50;;;;;;;;;;5037186;28;20036;-80
2021/11/03 00:31:51;;;;;;;15.10;7.50;;;;;;;;;;5034327;28;20440;-80
2021/11/03 00:34:16;;;;;;;15.17;7.57;;;;;;;;;;5042483;28;20503;-80
2021/11/03 00:36:41;;;;;;;15.80;7.93;;;;;;;;;;5041517;28;20033;-80
2021/11/03 00:39:06;;;;;;;17.80;8.00;;;;;;;;;;5038662;28;20024;-80
2021/11/03 00:41:32;;;;;;;14.33;7.67;;;;;;;;;;5075472;28;20021;-80
2021/11/03 00:43:57;;;;;;;16.67;8.57;;;;;;;;;;5035588;28;20469;-80
2021/11/03 00:46:22;;;;;;;17.33;8.03;;;;;;;;;;5072420;28;20066;-81
2021/11/03 00:48:47;;;;;;;14.87;7.83;;;;;;;;;;5036756;28;20018;-80
2021/11/03 00:51:13;;;;;;;18.20;8.53;;;;;;;;;;5043607;28;20056;-80
2021/11/03 00:53:38;;;;;;;18.47;8.10;;;;;;;;;;5072362;28;20476;-80
2021/11/03 00:56:04;;;;;;;16.50;8.80;;;;;;;;;;5037830;28;20036;-80
2021/11/03 00:58:29;;;;;;;19.93;8.53;;;;;;;;;;5039915;28;20032;-80
2021/11/03 01:00:54;;;;;;;16.37;9.20;;;;;;;;;;5032846;28;20071;-80
2021/11/03 01:03:19;;;;;;;18.03;8.83;;;;;;;;;;5036705;28;20033;-80
2021/11/03 01:05:45;;;;;;;15.50;7.90;;;;;;;;;;5070529;28;20049;-80
2021/11/03 01:08:11;;;;;;;18.17;8.00;;;;;;;;;;5034004;28;20037;-80
2021/11/03 01:10:38;;;;;;;20.33;8.63;;;;;;;;;;5074833;28;20028;-80
2021/11/03 01:13:03;;;;;;;17.63;7.60;;;;;;;;;;5034956;28;20032;-80
2021/11/03 01:15:28;;;;;;;11.17;6.30;;;;;;;;;;5037570;28;20469;-80
2021/11/03 01:17:55;;;;;;;15.40;7.80;;;;;;;;;;5040752;28;20028;-80
2021/11/03 01:20:20;;;;;;;16.27;8.63;;;;;;;;;;5037532;28;20040;-80
2021/11/03 01:22:46;;;;;;;15.13;7.90;;;;;;;;;;5075579;28;20456;-80
2021/11/03 01:25:12;;;;;;;15.50;8.00;;;;;;;;;;5035166;28;20025;-80
2021/11/03 01:27:37;;;;;;;14.13;7.30;;;;;;;;;;5039522;28;20029;-80
2021/11/03 01:30:03;;;;;;;14.70;7.17;;;;;;;;;;5067382;28;20543;-80
2021/11/03 01:32:28;;;;;;;15.93;7.17;;;;;;;;;;5040738;28;20027;-80
2021/11/03 01:34:53;;;;;;;18.03;7.30;;;;;;;;;;5035826;28;20025;-80
2021/11/03 01:37:18;;;;;;;18.70;8.07;;;;;;;;;;5037446;28;20076;-80
2021/11/03 01:39:44;;;;;;;16.57;7.93;;;;;;;;;;5069843;28;20014;-80
2021/11/03 01:42:09;;;;;;;16.87;8.10;;;;;;;;;;5065655;28;20063;-80
2021/11/03 01:44:35;;;;;;;15.63;7.43;;;;;;;;;;5077188;28;20017;-80
2021/11/03 01:47:19;;;;;;;16.87;8.40;;;;;;;;;;5042348;28;20502;-80
2021/11/03 01:49:44;;;;;;;16.90;7.43;;;;;;;;;;5035780;28;20104;-80
2021/11/03 01:52:11;;;;;;;15.27;7.63;;;;;;;;;;5071129;28;20106;-80
2021/11/03 01:54:40;;;;;;;15.67;7.20;;;;;;;;;;5059547;28;20021;-80
2021/11/03 01:57:08;;;;;;;14.00;7.60;;;;;;;;;;5032015;28;20079;-80
2021/11/03 01:59:34;;;;;;;15.83;8.03;;;;;;;;;;5032640;28;20041;-79
2021/11/03 02:02:00;;;;;;;16.20;7.67;;;;;;;;;;5032475;28;20017;-80
2021/11/03 02:04:26;;;;;;;13.20;6.80;;;;;;;;;;5030985;28;20484;-80
2021/11/03 02:06:52;;;;;;;21.17;7.10;;;;;;;;;;5032101;28;20063;-80
2021/11/03 02:09:17;;;;;;;12.30;6.53;;;;;;;;;;5032216;28;20484;-80
2021/11/03 02:11:43;;;;;;;13.10;6.93;;;;;;;;;;5032198;28;20032;-80
2021/11/03 02:14:08;;;;;;;16.73;7.00;;;;;;;;;;5065322;28;20461;-80
2021/11/03 02:16:35;;;;;;;10.57;6.43;;;;;;;;;;5031499;28;20021;-80
2021/11/03 02:19:01;;;;;;;14.67;6.90;;;;;;;;;;5032967;28;20384;-80
2021/11/03 02:21:49;;;;;;;13.03;7.00;;;;;;;;;;5065467;28;20022;-80
2021/11/03 02:24:22;;;;;;;13.53;7.30;;;;;;;;;;5026233;28;20037;-80
2021/11/03 02:26:47;;;;;;;;;;;;;;;;;;5033285;28;20018;-80
2021/11/03 02:29:13;;;;;;;14.48;6.10;;;;;;;;;;5048057;28;19959;-80
2021/11/03 02:31:41;;;;;;;20.00;6.23;;;;;;;;;;5031816;28;20389;-80
2021/11/03 02:34:08;;;;;;;11.07;6.13;;;;;;;;;;5032965;28;20071;-80
2021/11/03 02:36:34;;;;;;;13.80;6.57;;;;;;;;;;5033314;28;20029;-79
2021/11/03 02:39:02;;;;;;;15.10;7.17;;;;;;;;;;5031090;28;20041;-80
2021/11/03 02:41:29;;;;;;;14.17;6.53;;;;;;;;;;5064966;28;20109;-80
2021/11/03 02:44:14;;;;;;;13.80;6.77;;;;;;;;;;5064242;28;20033;-80
2021/11/03 02:46:39;;;;;;;12.73;6.83;;;;;;;;;;5031371;28;20485;-80
2021/11/03 02:49:04;;;;;;;12.57;6.83;;;;;;;;;;5031689;28;20084;-80
2021/11/03 02:51:38;;;;;;;14.63;7.50;;;;;;;;;;5064756;28;20037;-79
2021/11/03 02:54:07;;;;;;;15.30;6.87;;;;;;;;;;5031024;28;20052;-80
2021/11/03 02:56:35;;;;;;;12.87;7.13;;;;;;;;;;5064606;28;20083;-80
2021/11/03 02:59:00;;;;;;;12.70;7.00;;;;;;;;;;5031557;28;20029;-80
2021/11/03 03:01:36;;;;;;;13.07;6.27;;;;;;;;;;5032440;28;20368;-80
2021/11/03 03:04:03;;;;;;;17.47;6.63;;;;;;;;;;5057768;28;20026;-79
2021/11/03 03:06:30;;;;;;;12.80;6.73;;;;;;;;;;5064253;28;20029;-80
2021/11/03 03:08:56;;;;;;;12.27;6.33;;;;;;;;;;5023327;28;20026;-80
2021/11/03 03:11:21;;;;;;;10.47;6.70;;;;;;;;;;5031293;28;20033;-80
2021/11/03 03:13:49;;;;;;;12.10;5.83;;;;;;;;;;5064184;28;20021;-80
2021/11/03 03:16:14;;;;;;;12.13;6.93;;;;;;;;;;5031020;28;20447;-80
2021/11/03 03:18:39;;;;;;;12.83;5.80;;;;;;;;;;5064040;28;20037;-80
2021/11/03 03:21:05;;;;;;;15.20;6.60;;;;;;;;;;5064678;28;20055;-80
2021/11/03 03:23:30;;;;;;;12.73;7.03;;;;;;;;;;5064379;28;20070;-79
2021/11/03 03:25:56;;;;;;;14.30;7.20;;;;;;;;;;5030759;28;20032;-80
2021/11/03 03:28:21;;;;;;;14.57;7.30;;;;;;;;;;5030900;28;20033;-79
2021/11/03 03:30:47;;;;;;;12.83;7.00;;;;;;;;;;5063898;28;20156;-79
2021/11/03 03:33:12;;;;;;;15.00;6.93;;;;;;;;;;5030763;28;20476;-79
2021/11/03 03:35:37;;;;;;;13.83;6.30;;;;;;;;;;5064324;28;20381;-79
2021/11/03 03:38:02;;;;;;;13.97;6.50;;;;;;;;;;5064032;28;21067;-80
2021/11/03 03:40:28;;;;;;;14.87;6.97;;;;;;;;;;5030775;28;20021;-80
2021/11/03 03:42:53;;;;;;;10.83;5.90;;;;;;;;;;5064214;28;20385;-80
2021/11/03 03:45:18;;;;;;;10.30;6.27;;;;;;;;;;5031339;28;20449;-79
2021/11/03 03:47:43;;;;;;;12.50;6.17;;;;;;;;;;5031161;28;20036;-80
2021/11/03 03:50:09;;;;;;;12.53;6.40;;;;;;;;;;5030884;28;20072;-80
2021/11/03 03:52:34;;;;;;;12.37;6.37;;;;;;;;;;5030839;28;20121;-79
2021/11/03 03:55:00;;;;;;;11.30;6.30;;;;;;;;;;5031681;28;20028;-80
2021/11/03 03:57:25;;;;;;;16.10;6.10;;;;;;;;;;5034763;28;20053;-79
2021/11/03 03:59:50;;;;;;;13.20;6.50;;;;;;;;;;5035775;28;20048;-79
2021/11/03 04:02:16;;;;;;;12.00;6.13;;;;;;;;;;5034613;28;20065;-79
2021/11/03 04:04:41;;;;;;;15.17;6.50;;;;;;;;;;5034356;28;20109;-80
2021/11/03 04:07:06;;;;;;;10.53;5.90;;;;;;;;;;5034353;28;20028;-79
2021/11/03 04:09:31;;;;;;;11.80;5.77;;;;;;;;;;5034212;28;20488;-80
2021/11/03 04:11:56;;;;;;;11.20;5.80;;;;;;;;;;5034710;28;20041;-80
2021/11/03 04:14:22;;;;;;;8.93;5.70;;;;;;;;;;5067631;28;20401;-80
2021/11/03 04:16:47;;;;;;;11.70;6.07;;;;;;;;;;5034498;28;20469;-80
2021/11/03 04:19:12;;;;;;;12.50;5.70;;;;;;;;;;5067511;28;20094;-79
2021/11/03 04:21:37;;;;;;;13.13;6.53;;;;;;;;;;5034048;28;20021;-79
2021/11/03 04:24:03;;;;;;;10.90;6.50;;;;;;;;;;5067224;28;20040;-79
2021/11/03 04:26:31;;;;;;;12.93;6.67;;;;;;;;;;5035209;28;20013;-80
2021/11/03 04:28:56;;;;;;;11.87;6.17;;;;;;;;;;5067855;28;20028;-80
2021/11/03 04:31:21;;;;;;;13.77;6.53;;;;;;;;;;5033579;28;20029;-80
2021/11/03 04:33:50;;;;;;;16.03;5.73;;;;;;;;;;5035181;28;20539;-80
2021/11/03 04:36:15;;;;;;;13.30;6.30;;;;;;;;;;5034173;28;20431;-80
2021/11/03 04:38:40;;;;;;;18.20;6.53;;;;;;;;;;5033924;28;20025;-79
2021/11/03 04:41:06;;;;;;;15.93;6.47;;;;;;;;;;5067348;28;20033;-80
2021/11/03 04:43:32;;;;;;;13.07;6.53;;;;;;;;;;5033463;28;20029;-79
2021/11/03 04:45:57;;;;;;;11.40;6.30;;;;;;;;;;5066958;28;20091;-80
2021/11/03 04:48:23;;;;;;;11.23;6.13;;;;;;;;;;5035387;28;20457;-80
2021/11/03 04:50:48;;;;;;;10.60;5.90;;;;;;;;;;5033660;28;20079;-80
2021/11/03 04:53:13;;;;;;;11.77;6.43;;;;;;;;;;5034997;28;20033;-79
2021/11/03 04:55:38;;;;;;;11.57;6.23;;;;;;;;;;5067192;28;20021;-80
2021/11/03 04:58:04;;;;;;;12.63;6.70;;;;;;;;;;5067083;28;20029;-80
2021/11/03 05:00:33;;;;;;;17.37;7.30;;;;;;;;;;5033263;28;20083;-79
2021/11/03 05:02:58;;;;;;;11.07;6.10;;;;;;;;;;5033805;28;20017;-80
2021/11/03 05:05:24;;;;;;;13.60;6.90;;;;;;;;;;5035094;28;20370;-80
2021/11/03 05:07:49;;;;;;;15.60;7.53;;;;;;;;;;5032213;28;20025;-80
2021/11/03 05:10:16;;;;;;;15.20;6.77;;;;;;;;;;5034422;28;20029;-79
2021/11/03 05:12:41;;;;;;;16.20;7.23;;;;;;;;;;5033376;28;20025;-79
2021/11/03 05:15:07;;;;;;;13.47;7.07;;;;;;;;;;5033207;28;20026;-80
2021/11/03 05:17:32;;;;;;;14.17;6.97;;;;;;;;;;5033265;28;20036;-79
2021/11/03 05:19:57;;;;;;;16.70;8.20;;;;;;;;;;5032964;28;20029;-80
2021/11/03 05:22:25;;;;;;;15.80;7.93;;;;;;;;;;5033353;28;20390;-79
2021/11/03 05:24:54;;;;;;;19.23;8.10;;;;;;;;;;5034132;28;20026;-79
2021/11/03 05:27:21;;;;;;;13.13;7.17;;;;;;;;;;5066226;28;20095;-80
2021/11/03 05:29:47;;;;;;;15.57;7.10;;;;;;;;;;5033998;28;20021;-80
2021/11/03 05:32:12;;;;;;;13.03;7.03;;;;;;;;;;5032986;28;20067;-80
2021/11/03 05:34:37;;;;;;;14.17;7.70;;;;;;;;;;5032772;28;20112;-79
2021/11/03 05:37:04;;;;;;;13.03;7.10;;;;;;;;;;5032850;28;20053;-80
2021/11/03 05:39:29;;;;;;;13.17;7.00;;;;;;;;;;5033972;28;20064;-80
2021/11/03 05:41:54;;;;;;;14.70;6.73;;;;;;;;;;5032775;28;20465;-80
2021/11/03 05:44:20;;;;;;;12.43;5.80;;;;;;;;;;5033018;28;20469;-80
2021/11/03 05:46:47;;;;;;;19.77;6.63;;;;;;;;;;5032954;28;20017;-79
2021/11/03 05:49:13;;;;;;;14.30;6.30;;;;;;;;;;5065970;28;20025;-80
2021/11/03 05:51:39;;;;;;;18.77;6.30;;;;;;;;;;5032763;28;20469;-80
2021/11/03 05:54:05;;;;;;;13.97;6.57;;;;;;;;;;5032408;28;20036;-80
2021/11/03 05:56:31;;;;;;;15.27;6.33;;;;;;;;;;5033872;28;20028;-80
2021/11/03 05:58:57;;;;;;;12.10;6.50;;;;;;;;;;5032430;28;20026;-79
2021/11/03 06:01:22;;;;;;;10.60;5.97;;;;;;;;;;5031381;28;20094;-80
2021/11/03 06:03:47;;;;;;;12.87;6.47;;;;;;;;;;5032581;28;20469;-80
2021/11/03 06:06:12;;;;;;;12.17;6.57;;;;;;;;;;5032073;28;20120;-80
2021/11/03 06:08:38;;;;;;;15.87;5.47;;;;;;;;;;5032405;28;20056;-80
2021/11/03 06:11:03;;;;;;;11.77;6.53;;;;;;;;;;5032169;28;20057;-80
2021/11/03 06:13:29;;;;;;;12.87;6.30;;;;;;;;;;5025795;28;20049;-79
2021/11/03 06:15:54;;;;;;;13.20;6.23;;;;;;;;;;5031985;28;20028;-79
2021/11/03 06:18:19;;;;;;;12.73;6.80;;;;;;;;;;5031842;28;20485;-80
2021/11/03 06:20:44;;;;;;;12.70;7.13;;;;;;;;;;5031668;28;20020;-80
2021/11/03 06:23:09;;;;;;;11.03;6.57;;;;;;;;;;5031643;28;20065;-80
2021/11/03 06:25:35;;;;;;;16.30;6.57;;;;;;;;;;5065634;28;20026;-80
2021/11/03 06:28:02;;;;;;;16.73;7.07;;;;;;;;;;5065361;28;20022;-79
2021/11/03 06:30:30;;;;;;;15.10;7.83;;;;;;;;;;5064803;28;20036;-79
2021/11/03 06:32:56;;;;;;;14.57;7.30;;;;;;;;;;5031569;28;20022;-79
2021/11/03 06:35:21;;;;;;;15.03;7.17;;;;;;;;;;5031637;28;20492;-79
2021/11/03 06:37:47;;;;;;;12.13;6.63;;;;;;;;;;5031641;28;20021;-80
2021/11/03 06:40:13;;;;;;;13.70;7.27;;;;;;;;;;5032633;28;20536;-80
2021/11/03 06:42:38;;;;;;;12.23;6.00;;;;;;;;;;5064923;28;20021;-80
2021/11/03 06:45:05;;;;;;;13.77;6.47;;;;;;;;;;5032829;28;20484;-79
2021/11/03 06:47:30;;;;;;;12.93;6.47;;;;;;;;;;5029896;28;20025;-80
2021/11/03 06:49:55;;;;;;;12.87;6.67;;;;;;;;;;5031479;28;20108;-80
2021/11/03 06:52:21;;;;;;;14.43;6.17;;;;;;;;;;5031473;28;20024;-80
2021/11/03 06:54:46;;;;;;;11.60;6.20;;;;;;;;;;5064843;28;21176;-80
2021/11/03 06:57:11;;;;;;;12.43;7.00;;;;;;;;;;5030888;28;20392;-80
2021/11/03 06:59:37;;;;;;;14.23;7.90;;;;;;;;;;5064674;28;20041;-80
2021/11/03 07:02:02;;;;;;;13.60;7.03;;;;;;;;;;5031643;28;20028;-80
2021/11/03 07:04:28;;;;;;;13.53;7.00;;;;;;;;;;5032515;28;20018;-80
2021/11/03 07:06:54;;;;;;;12.57;7.13;;;;;;;;;;5032345;28;20053;-80
2021/11/03 07:09:19;;;;;;;18.23;8.63;;;;;;;;;;5031522;28;20096;-80
2021/11/03 07:11:44;;;;;;;18.83;9.07;;;;;;;;;;5030990;28;20025;-80
2021/11/03 07:14:11;;;;;;;31.77;9.40;;;;;;;;;;5029674;28;20029;-80
2021/11/03 07:16:36;;;;;;;20.70;9.60;;;;;;;;;;5030684;28;20105;-80
2021/11/03 07:19:02;;;;;;;21.73;8.70;;;;;;;;;;5032286;28;20108;-80
2021/11/03 07:21:27;;;;;;;15.03;8.83;;;;;;;;;;5063155;28;20380;-80
2021/11/03 07:23:52;;;;;;;15.00;8.53;;;;;;;;;;5031165;28;20026;-80
2021/11/03 07:26:18;;;;;;;17.23;9.17;;;;;;;;;;5030134;28;20026;-80
2021/11/03 07:28:43;;;;;;;16.07;8.23;;;;;;;;;;5031382;28;20048;-80
2021/11/03 07:31:08;;;;;;;16.00;8.43;;;;;;;;;;5030628;28;20061;-80
2021/11/03 07:33:34;;;;;;;17.73;8.10;;;;;;;;;;5031194;28;20068;-79
2021/11/03 07:35:59;;;;;;;16.00;8.70;;;;;;;;;;5064065;28;20026;-80
2021/11/03 07:38:25;;;;;;;18.33;8.13;;;;;;;;;;5063697;28;20074;-79
2021/11/03 07:40:52;;;;;;;16.07;7.97;;;;;;;;;;5064191;28;20032;-80
2021/11/03 07:43:19;;;;;;;16.83;8.07;;;;;;;;;;5030993;28;20353;-80
2021/11/03 07:45:45;;;;;;;13.97;7.80;;;;;;;;;;5030171;28;20504;-79
2021/11/03 07:48:10;;;;;;;13.83;7.40;;;;;;;;;;5031610;28;20030;-80
2021/11/03 07:50:39;;;;;;;17.77;8.57;;;;;;;;;;5030726;28;20108;-80
2021/11/03 07:53:05;;;;;;;20.00;9.90;;;;;;;;;;5061948;28;20164;-80
2021/11/03 07:55:30;;;;;;;18.60;10.07;;;;;;;;;;5027746;28;20116;-80
2021/11/03 07:57:56;;;;;;;19.50;9.83;;;;;;;;;;5027210;28;20032;-80
2021/11/03 08:00:29;;;;;;;15.23;8.87;;;;;;;;;;5028993;28;20029;-80
2021/11/03 08:02:54;;;;;;;21.03;10.07;;;;;;;;;;5027551;28;20017;-80
2021/11/03 08:05:19;;;;;;;19.57;11.07;;;;;;;;;;5029483;28;20504;-80
2021/11/03 08:07:45;;;;;;;18.27;10.33;;;;;;;;;;5029272;28;20140;-80
2021/11/03 08:10:14;;;;;;;16.70;9.50;;;;;;;;;;5028897;28;20029;-80
2021/11/03 08:12:41;;;;;;;18.67;8.47;;;;;;;;;;5030043;28;20025;-80
2021/11/03 08:15:06;;;;;;;18.53;8.63;;;;;;;;;;5029604;28;20025;-80
2021/11/03 08:17:32;;;;;;;17.33;8.37;;;;;;;;;;5029486;28;20556;-80
2021/11/03 08:19:59;;;;;;;16.57;8.17;;;;;;;;;;5029759;28;20017;-80
2021/11/03 08:22:24;;;;;;;17.60;8.23;;;;;;;;;;5028047;28;20875;-79
2021/11/03 08:24:54;;;;;;;24.77;9.10;;;;;;;;;;5031452;28;20017;-80
2021/11/03 08:27:22;;;;;;;23.33;8.90;;;;;;;;;;5063520;28;20116;-80
2021/11/03 08:29:47;;;;;;;14.70;8.03;;;;;;;;;;5029455;28;20021;-80
2021/11/03 08:32:15;;;;;;;15.77;8.20;;;;;;;;;;5030629;28;20095;-79
2021/11/03 08:34:40;;;;;;;16.50;9.23;;;;;;;;;;5056489;28;20025;-80
2021/11/03 08:37:09;;;;;;;18.80;8.40;;;;;;;;;;5030491;28;20025;-80
2021/11/03 08:39:36;;;;;;;20.07;9.20;;;;;;;;;;5063325;28;20036;-79
2021/11/03 08:42:02;;;;;;;21.53;10.10;;;;;;;;;;5031686;28;20018;-80
2021/11/03 08:44:28;;;;;;;22.13;10.17;;;;;;;;;;5032824;28;20030;-80
2021/11/03 08:46:54;;;;;;;18.73;9.63;;;;;;;;;;5033588;28;20079;-80
2021/11/03 08:49:19;;;;;;;20.37;9.57;;;;;;;;;;5067280;28;20030;-80
2021/11/03 08:51:44;;;;;;;19.23;9.43;;;;;;;;;;5035116;28;20080;-80
2021/11/03 08:54:09;;;;;;;18.03;9.77;;;;;;;;;;5067039;28;20043;-80
2021/11/03 08:56:38;;;;;;;18.27;9.87;;;;;;;;;;5035015;28;20061;-80
2021/11/03 08:59:04;;;;;;;22.07;10.60;;;;;;;;;;5033821;28;20076;-80
2021/11/03 09:01:29;;;;;;;19.50;10.10;;;;;;;;;;5033488;28;20029;-80
2021/11/03 09:03:55;;;;;;;18.70;10.00;;;;;;;;;;5034827;28;20572;-80
2021/11/03 09:06:20;;;;;;;19.10;9.50;;;;;;;;;;5033177;28;20025;-80
2021/11/03 09:08:47;;;;;;;18.43;9.20;;;;;;;;;;5033305;28;20397;-80
2021/11/03 09:11:13;;;;;;;18.80;9.63;;;;;;;;;;5066767;28;20040;-79
2021/11/03 09:13:38;;;;;;;17.77;9.53;;;;;;;;;;5066224;28;20029;-79
2021/11/03 09:16:04;;;;;;;19.93;10.40;;;;;;;;;;5066905;28;20064;-80
2021/11/03 09:18:29;;;;;;;22.20;9.87;;;;;;;;;;5033316;28;20021;-80
2021/11/03 09:20:55;;;;;;;19.70;9.07;;;;;;;;;;5066413;28;20025;-80
2021/11/03 09:23:20;;;;;;;16.50;8.77;;;;;;;;;;5032912;28;20108;-80
2021/11/03 09:25:46;;;;;;;21.90;10.07;;;;;;;;;;5066511;28;20017;-80
2021/11/03 09:28:11;;;;;;;23.33;9.27;;;;;;;;;;5033241;28;20026;-80
2021/11/03 09:30:37;;;;;;;21.00;9.50;;;;;;;;;;5066382;28;20041;-80
2021/11/03 09:33:04;;;;;;;18.50;9.90;;;;;;;;;;5066132;28;20021;-80
2021/11/03 09:35:31;;;;;;;18.27;9.60;;;;;;;;;;5034251;28;20021;-80
2021/11/03 09:37:57;;;;;;;18.67;9.83;;;;;;;;;;5066239;28;20025;-80
2021/11/03 09:40:25;;;;;;;22.47;10.13;;;;;;;;;;5066413;28;20053;-80
2021/11/03 09:42:51;;;;;;;19.47;10.13;;;;;;;;;;5032859;28;20021;-80
2021/11/03 09:45:19;;;;;;;20.73;9.73;;;;;;;;;;5032610;28;20457;-80
2021/11/03 09:47:55;;;;;;;19.80;10.67;;;;;;;;;;5065990;28;20100;-80
2021/11/03 09:50:23;;;;;;;25.00;10.93;;;;;;;;;;5032690;28;20064;-80
2021/11/03 09:52:55;;;;;;;20.03;10.30;;;;;;;;;;5032287;28;20080;-80
2021/11/03 09:55:23;;;;;;;16.73;9.70;;;;;;;;;;5031753;28;20562;-80
2021/11/03 09:58:01;;;;;;;18.93;9.40;;;;;;;;;;5066011;28;20060;-80
2021/11/03 10:00:36;;;;;;;28.13;10.80;;;;;;;;;;5033459;28;20020;-80
2021/11/03 10:03:10;;;;;;;22.23;10.02;;;;;;;;;;5033763;28;20100;-80
2021/11/03 10:05:48;;;;;;;22.63;11.25;;;;;;;;;;5048805;28;20481;-80
2021/11/03 10:08:15;;;;;;;23.13;11.10;;;;;;;;;;5032365;28;20021;-80
2021/11/03 10:10:42;;;;;;;22.93;10.70;;;;;;;;;;5033906;28;20026;-80
2021/11/03 10:13:33;;;;;;;19.90;11.00;;;;;;;;;;5033719;28;20083;-80
2021/11/03 10:16:03;;;;;;;24.70;10.10;;;;;;;;;;5031254;28;20065;-80
2021/11/03 10:18:30;;;;;;;17.90;10.30;;;;;;;;;;5031923;28;20112;-80
2021/11/03 10:21:17;;;;;;;17.87;9.27;;;;;;;;;;5032539;28;20017;-80
2021/11/03 10:24:02;;;;;;;20.00;9.60;;;;;;;;;;5032384;28;20034;-80
2021/11/03 10:26:28;;;;;;;18.75;9.73;;;;;;;;;;5031941;28;20120;-80
2021/11/03 10:29:06;;;;;;;17.17;9.88;;;;;;;;;;5032293;28;20018;-80
2021/11/03 10:31:34;;;;;;;24.17;9.68;;;;;;;;;;5031326;28;20125;-80
2021/11/03 10:34:18;;;;;;;19.58;9.38;;;;;;;;;;5031929;28;20037;-80
2021/11/03 10:36:44;;;;;;;16.88;8.75;;;;;;;;;;5032710;28;20111;-80
2021/11/03 10:39:12;;;;;;;20.23;9.05;;;;;;;;;;5031629;28;20049;-80
2021/11/03 10:41:37;;;;;;;20.48;9.02;;;;;;;;;;5031886;28;20025;-80
2021/11/03 10:44:07;;;;;;;16.35;8.40;;;;;;;;;;5031568;28;20086;-80
2021/11/03 10:46:40;;;;;;;19.88;9.15;;;;;;;;;;5031989;28;20084;-81
2021/11/03 10:49:14;;;;;;;20.33;9.10;;;;;;;;;;5031847;28;20036;-80
2021/11/03 10:51:40;;;;;;;19.48;8.85;;;;;;;;;;5031542;28;20041;-80
2021/11/03 10:54:12;;;;;;;21.05;9.07;;;;;;;;;;5031398;28;20029;-80
2021/11/03 10:56:51;;;;;;;24.40;8.53;;;;;;;;;;5033058;28;20360;-80
2021/11/03 10:59:16;;;;;;;18.67;8.20;;;;;;;;;;5030888;28;20021;-80
2021/11/03 11:01:45;;;;;;;16.20;8.30;;;;;;;;;;5031210;28;20021;-80
2021/11/03 11:04:23;;;;;;;18.48;8.35;;;;;;;;;;5030986;28;20025;-80
2021/11/03 11:06:51;;;;;;;17.65;8.80;;;;;;;;;;5026764;28;20120;-80
2021/11/03 11:09:19;;;;;;;14.95;8.50;;;;;;;;;;5031228;28;20071;-80
2021/11/03 11:11:46;;;;;;;24.67;10.25;;;;;;;;;;5032893;28;20018;-80
2021/11/03 11:14:20;;;;;;;24.25;9.15;;;;;;;;;;5031158;28;20535;-80
2021/11/03 11:16:52;;;;;;;17.88;8.90;;;;;;;;;;5031255;28;20485;-80
2021/11/03 11:19:23;;;;;;;18.02;9.80;;;;;;;;;;5031135;28;20021;-80
2021/11/03 11:21:58;;;;;;;24.42;9.48;;;;;;;;;;5044726;28;20465;-80
2021/11/03 11:24:33;;;;;;;20.00;8.65;;;;;;;;;;5030648;28;20017;-81
2021/11/03 11:27:02;;;;;;;16.45;9.02;;;;;;;;;;5031534;28;20017;-80
2021/11/03 11:29:38;;;;;;;19.40;8.80;;;;;;;;;;5031603;28;20040;-80
2021/11/03 11:32:09;;;;;;;24.42;9.43;;;;;;;;;;5032029;28;20017;-80
2021/11/03 11:34:40;;;;;;;15.63;8.75;;;;;;;;;;5030771;28;20029;-80
2021/11/03 11:37:12;;;;;;;18.10;7.90;;;;;;;;;;5031757;28;20492;-80
2021/11/03 11:39:41;;;;;;;13.73;7.47;;;;;;;;;;5047447;28;20469;-80
2021/11/03 11:42:09;;;;;;;21.08;9.27;;;;;;;;;;5030789;28;20025;-81
2021/11/03 11:44:35;;;;;;;17.15;8.05;;;;;;;;;;5047344;28;20021;-81
2021/11/03 11:47:06;;;;;;;16.15;8.00;;;;;;;;;;5038187;28;20074;-81
2021/11/03 11:49:33;;;;;;;17.67;8.85;;;;;;;;;;5032578;28;20076;-80
2021/11/03 11:52:22;;;;;;;14.02;8.07;;;;;;;;;;5030219;28;20024;-81
2021/11/03 11:55:06;;;;;;;21.23;8.68;;;;;;;;;;5029570;28;20033;-81
2021/11/03 11:57:31;;;;;;;13.02;7.25;;;;;;;;;;5031242;28;20021;-81
2021/11/03 12:00:00;;;;;;;18.63;7.75;;;;;;;;;;5063577;28;20365;-80
2021/11/03 12:02:27;;;;;;;16.33;8.55;;;;;;;;;;5027552;28;20346;-80
2021/11/03 12:05:22;;;;;;;16.23;8.10;;;;;;;;;;5030525;28;20382;-81
2021/11/03 12:08:06;;;;;;;18.77;8.82;;;;;;;;;;5058989;28;20018;-81
2021/11/03 12:10:32;;;;;;;16.65;8.30;;;;;;;;;;5046679;28;20465;-81
2021/11/03 12:13:14;;;;;;;18.02;9.50;;;;;;;;;;5063613;28;20022;-80
2021/11/03 12:15:58;;;;;;;21.25;9.55;;;;;;;;;;5047044;28;20028;-81
2021/11/03 12:18:26;;;;;;;18.65;9.20;;;;;;;;;;5032618;28;20484;-80
2021/11/03 12:20:57;;;;;;;24.23;9.77;;;;;;;;;;5036450;28;20027;-80
2021/11/03 12:23:41;;;;;;;15.85;8.75;;;;;;;;;;5035073;28;20014;-81
2021/11/03 12:26:25;;;;;;;22.13;9.80;;;;;;;;;;5034852;28;20025;-80
2021/11/03 12:29:22;;;;;;;20.63;8.98;;;;;;;;;;5033666;28;20041;-81
2021/11/03 12:31:52;;;;;;;19.35;9.60;;;;;;;;;;5017889;28;20048;-81
2021/11/03 12:34:34;;;;;;;15.15;8.23;;;;;;;;;;5030654;28;20018;-81
2021/11/03 12:37:02;;;;;;;17.75;8.20;;;;;;;;;;5059616;28;20080;-80
2021/11/03 12:39:27;;;;;;;21.00;9.07;;;;;;;;;;5032287;28;20036;-80
2021/11/03 12:41:52;;;;;;;22.40;9.48;;;;;;;;;;5036918;28;20025;-80
2021/11/03 12:44:24;;;;;;;19.05;9.50;;;;;;;;;;5066929;28;20465;-80
2021/11/03 12:46:50;;;;;;;24.48;10.30;;;;;;;;;;5028641;28;20075;-81
2021/11/03 12:49:20;;;;;;;17.25;8.82;;;;;;;;;;5032602;28;20392;-81
2021/11/03 12:51:50;;;;;;;19.60;10.05;;;;;;;;;;5025850;28;20037;-81
2021/11/03 12:54:20;;;;;;;19.05;9.55;;;;;;;;;;5065604;28;20136;-81
2021/11/03 12:57:15;;;;;;;23.23;9.82;;;;;;;;;;5030599;28;20036;-80
2021/11/03 12:59:40;;;;;;;18.52;9.00;;;;;;;;;;5018612;28;20044;-80
2021/11/03 13:02:11;;;;;;;28.42;9.25;;;;;;;;;;5033798;28;20373;-81
2021/11/03 13:04:43;;;;;;;20.67;9.48;;;;;;;;;;5034774;28;20025;-81
2021/11/03 13:07:25;;;;;;;19.83;9.57;;;;;;;;;;5029655;28;20033;-81
2021/11/03 13:09:56;;;;;;;20.58;10.23;;;;;;;;;;5024691;28;20033;-81
2021/11/03 13:12:23;;;;;;;18.83;9.15;;;;;;;;;;5030657;28;20025;-81
2021/11/03 13:14:50;;;;;;;21.35;9.70;;;;;;;;;;5033333;28;20017;-81
2021/11/03 13:17:22;;;;;;;21.38;9.93;;;;;;;;;;5066076;28;20009;-81
2021/11/03 13:19:47;;;;;;;14.07;8.45;;;;;;;;;;5033168;28;20156;-81
2021/11/03 13:22:27;;;;;;;20.58;9.20;;;;;;;;;;5064155;28;20107;-81
2021/11/03 13:24:52;;;;;;;18.63;8.75;;;;;;;;;;5034416;28;20079;-81
2021/11/03 13:27:29;;;;;;;17.40;7.53;;;;;;;;;;5034972;28;20104;-81
2021/11/03 13:29:58;;;;;;;19.77;9.18;;;;;;;;;;5027658;28;20025;-81
2021/11/03 13:32:25;;;;;;;17.13;8.90;;;;;;;;;;5029929;28;20022;-81
2021/11/03 13:34:53;;;;;;;16.27;8.68;;;;;;;;;;5033327;28;20021;-81
2021/11/03 13:37:21;;;;;;;21.60;9.75;;;;;;;;;;5030510;28;20029;-80
2021/11/03 13:39:56;;;;;;;21.75;9.43;;;;;;;;;;5031634;28;20033;-80
2021/11/03 13:42:34;;;;;;;20.50;9.43;;;;;;;;;;5027640;28;20032;-81
2021/11/03 13:45:05;;;;;;;16.60;9.02;;;;;;;;;;5032906;28;20018;-81
2021/11/03 13:47:32;;;;;;;16.97;8.53;;;;;;;;;;5045848;28;20163;-81
2021/11/03 13:50:09;;;;;;;17.20;9.00;;;;;;;;;;5033000;28;20255;-81
2021/11/03 13:52:35;;;;;;;22.40;9.43;;;;;;;;;;5045612;28;20358;-81
2021/11/03 13:55:01;;;;;;;21.25;10.30;;;;;;;;;;5032129;28;20033;-80
2021/11/03 13:57:31;;;;;;;19.10;9.48;;;;;;;;;;5033144;28;20032;-81
2021/11/03 13:59:58;;;;;;;22.55;9.93;;;;;;;;;;5034513;28;20083;-81
2021/11/03 14:02:29;;;;;;;19.00;9.73;;;;;;;;;;5034513;28;20496;-80
2021/11/03 14:04:54;;;;;;;19.48;10.15;;;;;;;;;;5032860;28;20020;-81
2021/11/03 14:07:27;;;;;;;20.27;9.25;;;;;;;;;;5032302;28;20025;-80
2021/11/03 14:09:53;;;;;;;19.45;10.48;;;;;;;;;;5032869;28;20028;-81
2021/11/03 14:12:19;;;;;;;19.00;9.80;;;;;;;;;;5031812;28;20017;-80
2021/11/03 14:14:45;;;;;;;22.60;12.02;;;;;;;;;;5031866;28;20079;-80
2021/11/03 14:17:21;;;;;;;28.20;10.68;;;;;;;;;;5031380;28;20033;-81
2021/11/03 14:20:05;;;;;;;20.45;10.77;;;;;;;;;;5033926;28;20020;-81
2021/11/03 14:22:38;;;;;;;25.27;11.15;;;;;;;;;;5024377;28;20112;-81
2021/11/03 14:25:24;;;;;;;23.17;11.00;;;;;;;;;;5028993;28;20029;-80
2021/11/03 14:27:50;;;;;;;19.65;11.25;;;;;;;;;;5027382;28;20088;-80
2021/11/03 14:30:15;;;;;;;19.40;10.25;;;;;;;;;;5031549;28;20508;-80
2021/11/03 14:32:41;;;;;;;18.35;9.52;;;;;;;;;;5031927;28;20024;-81